Wetterdaten: Woche 10.02.03 - 16.02.03 (KW7)
Datum Zeit Temperatur Luftfeuchte Luftdruck Regenmenge Wind Richtung Taupunkt Windchill
10.02.2003 00:00 -0.1 C 79 % 1021.6 hPa 0.0 l/m 4.0 km/h (1 Bft) O-SO -3.3 C -1.3 C
10.02.2003 01:00 -0.2 C 79 % 1021.6 hPa 0.0 l/m 2.8 km/h (1 Bft) O-SO -3.4 C -1.0 C
10.02.2003 02:00 -0.3 C 80 % 1021.6 hPa 0.0 l/m 4.0 km/h (1 Bft) O-SO -3.3 C -1.5 C
10.02.2003 03:00 -0.5 C 81 % 1021.6 hPa 0.0 l/m 1.0 km/h (0 Bft) O-SO -3.3 C -0.7 C
10.02.2003 04:00 -0.5 C 81 % 1021.6 hPa 0.0 l/m 0.1 km/h (0 Bft) N -3.3 C -0.5 C
10.02.2003 05:00 -0.5 C 81 % 1021.6 hPa 0.0 l/m 0.1 km/h (0 Bft) O -3.4 C -0.5 C
10.02.2003 06:00 -0.6 C 81 % 1021.6 hPa 0.0 l/m 0.0 km/h (0 Bft) N -3.4 C -0.6 C
10.02.2003 07:00 -0.7 C 82 % 1022.6 hPa 0.0 l/m 0.3 km/h (0 Bft) O-SO -3.4 C -0.7 C
10.02.2003 08:00 -0.4 C 80 % 1023.1 hPa 0.0 l/m 0.1 km/h (0 Bft) N -3.4 C -0.4 C
10.02.2003 09:00 0.1 C 78 % 1023.7 hPa 0.0 l/m 0.4 km/h (0 Bft) O-SO -3.2 C 0.1 C
10.02.2003 10:00 0.9 C 75 % 1023.7 hPa 0.0 l/m 3.2 km/h (1 Bft) O-SO -3.0 C 0.1 C
10.02.2003 11:00 1.5 C 73 % 1024.0 hPa 0.0 l/m 9.4 km/h (2 Bft) O-SO -2.9 C -1.3 C
10.02.2003 12:00 2.0 C 70 % 1023.7 hPa 0.0 l/m 11.6 km/h (2 Bft) SO -2.9 C -1.2 C
10.02.2003 13:00 2.7 C 67 % 1023.7 hPa 0.0 l/m 7.1 km/h (2 Bft) O-SO -2.9 C 0.7 C
10.02.2003 14:00 2.5 C 61 % 1023.7 hPa 0.0 l/m 6.2 km/h (2 Bft) O-SO -4.3 C 1.0 C
10.02.2003 15:00 2.2 C 60 % 1023.7 hPa 0.0 l/m 5.5 km/h (1 Bft) O-SO -4.6 C 0.8 C
10.02.2003 16:00 1.6 C 62 % 1023.7 hPa 0.0 l/m 9.2 km/h (2 Bft) O-SO -4.8 C -1.0 C
10.02.2003 17:00 0.9 C 65 % 1024.0 hPa 0.0 l/m 2.0 km/h (1 Bft) O-SO -5.0 C 0.7 C
10.02.2003 18:00 0.7 C 66 % 1024.8 hPa 0.0 l/m 0.1 km/h (0 Bft) N -5.0 C 0.7 C
10.02.2003 19:00 0.5 C 68 % 1025.7 hPa 0.0 l/m 0.0 km/h (0 Bft) N -4.8 C 0.5 C
10.02.2003 20:00 0.2 C 70 % 1025.8 hPa 0.0 l/m 0.0 km/h (0 Bft) N -4.7 C 0.2 C
10.02.2003 21:00 0.1 C 70 % 1025.8 hPa 0.0 l/m 0.0 km/h (0 Bft) N -4.8 C 0.1 C
10.02.2003 22:00 -0.1 C 70 % 1025.8 hPa 0.0 l/m 0.3 km/h (0 Bft) O-SO -4.8 C -0.1 C
10.02.2003 23:00 -0.4 C 71 % 1025.8 hPa 0.0 l/m 0.6 km/h (0 Bft) O -5.0 C -0.5 C
11.02.2003 00:00 -0.7 C 69 % 1025.8 hPa 0.0 l/m 0.1 km/h (0 Bft) O-SO -5.6 C -0.7 C
11.02.2003 01:00 -0.9 C 71 % 1025.8 hPa 0.0 l/m 0.2 km/h (0 Bft) N -5.6 C -0.9 C
11.02.2003 02:00 -1.0 C 71 % 1025.8 hPa 0.0 l/m 0.4 km/h (0 Bft) O-SO -5.6 C -1.0 C
11.02.2003 03:00 -1.2 C 71 % 1026.5 hPa 0.0 l/m 0.1 km/h (0 Bft) N -5.8 C -1.2 C
11.02.2003 04:00 -1.4 C 71 % 1026.8 hPa 0.0 l/m 0.1 km/h (0 Bft) N -5.9 C -1.4 C
11.02.2003 05:00 -1.5 C 72 % 1026.8 hPa 0.0 l/m 0.1 km/h (0 Bft) N -5.9 C -1.5 C
11.02.2003 06:00 -1.6 C 72 % 1026.8 hPa 0.0 l/m 1.6 km/h (1 Bft) SO -5.9 C -2.0 C
11.02.2003 07:00 -1.7 C 72 % 1026.8 hPa 0.0 l/m 0.0 km/h (0 Bft) N -6.0 C -1.7 C
11.02.2003 08:00 -1.6 C 73 % 1026.8 hPa 0.0 l/m 4.8 km/h (1 Bft) O-SO -5.8 C -3.3 C
11.02.2003 09:00 -1.4 C 73 % 1026.9 hPa 0.0 l/m 2.6 km/h (1 Bft) O -5.7 C -2.1 C
11.02.2003 10:00 -0.9 C 71 % 1027.9 hPa 0.0 l/m 0.9 km/h (0 Bft) O-SO -5.5 C -1.0 C
11.02.2003 11:00 -0.7 C 69 % 1027.9 hPa 0.0 l/m 3.9 km/h (1 Bft) O-SO -5.7 C -2.0 C
11.02.2003 12:00 -0.8 C 70 % 1027.9 hPa 0.0 l/m 8.3 km/h (2 Bft) O-SO -5.6 C -3.4 C
11.02.2003 13:00 -0.6 C 68 % 1027.9 hPa 0.0 l/m 7.5 km/h (2 Bft) O-SO -5.8 C -3.0 C
11.02.2003 14:00 -0.5 C 66 % 1026.8 hPa 0.0 l/m 8.2 km/h (2 Bft) O-SO -6.0 C -2.9 C
11.02.2003 15:00 -0.6 C 65 % 1026.8 hPa 0.0 l/m 5.3 km/h (1 Bft) O-SO -6.2 C -2.2 C
11.02.2003 16:00 -0.9 C 66 % 1026.8 hPa 0.0 l/m 5.3 km/h (1 Bft) O-SO -6.5 C -2.6 C
11.02.2003 17:00 -1.2 C 67 % 1026.9 hPa 0.0 l/m 5.0 km/h (1 Bft) O-SO -6.6 C -2.7 C
11.02.2003 18:00 -1.6 C 68 % 1027.9 hPa 0.0 l/m 9.4 km/h (2 Bft) O-SO -6.7 C -4.7 C
11.02.2003 19:00 -2.0 C 69 % 1027.9 hPa 0.0 l/m 6.1 km/h (2 Bft) O-SO -6.9 C -4.0 C
11.02.2003 20:00 -2.3 C 70 % 1027.9 hPa 0.0 l/m 2.7 km/h (1 Bft) O -7.1 C -3.0 C
11.02.2003 21:00 -2.6 C 71 % 1027.9 hPa 0.0 l/m 3.2 km/h (1 Bft) NO -7.1 C -3.4 C
11.02.2003 22:00 -2.8 C 71 % 1027.9 hPa 0.0 l/m 1.8 km/h (1 Bft) NO -7.2 C -3.3 C
11.02.2003 23:00 -3.0 C 72 % 1027.9 hPa 0.0 l/m 0.8 km/h (0 Bft) N-NO -7.3 C -3.1 C
12.02.2003 00:00 -3.2 C 72 % 1027.9 hPa 0.0 l/m 2.7 km/h (1 Bft) O-NO -7.5 C -4.0 C
12.02.2003 01:00 -3.6 C 71 % 1027.9 hPa 0.0 l/m 2.9 km/h (1 Bft) NO -8.0 C -4.3 C
12.02.2003 02:00 -4.0 C 72 % 1027.9 hPa 0.0 l/m 5.3 km/h (1 Bft) NO -8.3 C -6.1 C
12.02.2003 03:00 -4.3 C 73 % 1027.9 hPa 0.0 l/m 3.8 km/h (1 Bft) O-NO -8.4 C -5.3 C
12.02.2003 04:00 -4.7 C 74 % 1027.9 hPa 0.0 l/m 1.4 km/h (1 Bft) O-NO -8.5 C -5.0 C
12.02.2003 05:00 -4.8 C 75 % 1027.9 hPa 0.0 l/m 0.5 km/h (0 Bft) O-SO -8.6 C -4.8 C
12.02.2003 06:00 -5.0 C 76 % 1027.9 hPa 0.0 l/m 0.9 km/h (0 Bft) N-NO -8.6 C -5.1 C
12.02.2003 07:00 -5.3 C 74 % 1027.9 hPa 0.0 l/m 8.5 km/h (2 Bft) N-NO -9.2 C -8.9 C
12.02.2003 08:00 -5.2 C 73 % 1027.9 hPa 0.0 l/m 0.6 km/h (0 Bft) NO -9.2 C -5.4 C
12.02.2003 09:00 -5.1 C 72 % 1027.9 hPa 0.0 l/m 0.6 km/h (0 Bft) N -9.5 C -5.1 C
12.02.2003 10:00 -4.8 C 71 % 1027.9 hPa 0.0 l/m 2.4 km/h (1 Bft) O -9.2 C -5.6 C
12.02.2003 11:00 -4.7 C 70 % 1027.9 hPa 0.0 l/m 3.8 km/h (1 Bft) O -9.2 C -5.8 C
12.02.2003 12:00 -4.5 C 69 % 1027.9 hPa 0.0 l/m 3.9 km/h (1 Bft) O-SO -9.3 C -5.9 C
12.02.2003 13:00 -4.4 C 67 % 1027.6 hPa 0.0 l/m 2.7 km/h (1 Bft) O -9.7 C -5.3 C
12.02.2003 14:00 -4.4 C 66 % 1026.8 hPa 0.0 l/m 3.0 km/h (1 Bft) O-NO -9.9 C -5.3 C
12.02.2003 15:00 -4.1 C 59 % 1026.8 hPa 0.0 l/m 6.0 km/h (2 Bft) O -10.9 C -5.9 C
12.02.2003 16:00 -4.1 C 58 % 1026.8 hPa 0.0 l/m 7.1 km/h (2 Bft) O-SO -11.2 C -6.5 C
12.02.2003 17:00 -4.6 C 58 % 1026.8 hPa 0.0 l/m 3.6 km/h (1 Bft) O -11.6 C -5.8 C
12.02.2003 18:00 -4.9 C 56 % 1027.1 hPa 0.0 l/m 1.2 km/h (1 Bft) NO -12.2 C -5.3 C
12.02.2003 19:00 -5.0 C 57 % 1027.5 hPa 0.0 l/m 1.2 km/h (1 Bft) N-NO -12.1 C -5.3 C
12.02.2003 20:00 -5.1 C 58 % 1027.1 hPa 0.0 l/m 1.1 km/h (0 Bft) O-SO -12.0 C -5.1 C
12.02.2003 21:00 -5.3 C 60 % 1026.8 hPa 0.0 l/m 2.2 km/h (1 Bft) O -11.9 C -5.8 C
12.02.2003 22:00 -5.4 C 61 % 1026.8 hPa 0.0 l/m 3.9 km/h (1 Bft) O -11.7 C -6.7 C
12.02.2003 23:00 -5.5 C 61 % 1026.8 hPa 0.0 l/m 2.7 km/h (1 Bft) O-SO -11.8 C -6.6 C
13.02.2003 00:00 -5.4 C 62 % 1026.8 hPa 0.0 l/m 1.7 km/h (1 Bft) O-SO -11.5 C -6.0 C
13.02.2003 01:00 -5.3 C 63 % 1025.9 hPa 0.0 l/m 0.4 km/h (0 Bft) O-SO -11.3 C -5.5 C
13.02.2003 02:00 -5.2 C 63 % 1025.8 hPa 0.0 l/m 1.3 km/h (1 Bft) O -11.1 C -5.7 C
13.02.2003 03:00 -5.1 C 64 % 1025.8 hPa 0.0 l/m 1.6 km/h (1 Bft) O-SO -10.8 C -5.4 C
13.02.2003 04:00 -5.2 C 64 % 1025.0 hPa 0.0 l/m 1.0 km/h (0 Bft) O-SO -10.9 C -5.4 C
13.02.2003 05:00 -5.2 C 63 % 1024.8 hPa 0.0 l/m 0.7 km/h (0 Bft) O -11.1 C -5.2 C
13.02.2003 06:00 -5.4 C 64 % 1024.8 hPa 0.0 l/m 1.5 km/h (1 Bft) O -11.1 C -5.8 C
13.02.2003 07:00 -5.4 C 64 % 1024.8 hPa 0.0 l/m 0.3 km/h (0 Bft) O -11.1 C -5.4 C
13.02.2003 08:00 -5.4 C 66 % 1024.8 hPa 0.0 l/m 3.6 km/h (1 Bft) O-SO -10.8 C -6.8 C
13.02.2003 09:00 -5.1 C 66 % 1024.8 hPa 0.0 l/m 4.4 km/h (1 Bft) SO -10.4 C -6.9 C
13.02.2003 10:00 -4.5 C 64 % 1024.8 hPa 0.0 l/m 2.0 km/h (1 Bft) O-SO -10.2 C -5.0 C
13.02.2003 11:00 -3.7 C 62 % 1024.8 hPa 0.0 l/m 5.9 km/h (2 Bft) O-SO -10.0 C -5.9 C
13.02.2003 12:00 -3.4 C 61 % 1024.4 hPa 0.0 l/m 1.9 km/h (1 Bft) O -9.9 C -3.8 C
13.02.2003 13:00 -3.3 C 58 % 1023.7 hPa 0.0 l/m 0.9 km/h (0 Bft) O-SO -10.4 C -3.6 C
13.02.2003 14:00 -3.3 C 55 % 1023.7 hPa 0.0 l/m 1.1 km/h (1 Bft) O -11.0 C -3.5 C
13.02.2003 15:00 -3.3 C 54 % 1023.7 hPa 0.0 l/m 0.8 km/h (0 Bft) NO -11.2 C -3.4 C
13.02.2003 16:00 -3.5 C 54 % 1023.7 hPa 0.0 l/m 2.8 km/h (1 Bft) O-SO -11.5 C -4.5 C
13.02.2003 17:00 -4.0 C 54 % 1023.7 hPa 0.0 l/m 1.2 km/h (1 Bft) O -11.8 C -4.2 C
13.02.2003 18:00 -4.5 C 55 % 1024.7 hPa 0.0 l/m 2.8 km/h (1 Bft) NO -12.1 C -5.2 C
13.02.2003 19:00 -4.8 C 55 % 1024.8 hPa 0.0 l/m 4.4 km/h (1 Bft) O-SO -12.4 C -6.5 C
13.02.2003 20:00 -5.1 C 56 % 1024.8 hPa 0.0 l/m 1.9 km/h (1 Bft) O-NO -12.5 C -5.6 C
13.02.2003 21:00 -5.4 C 57 % 1024.8 hPa 0.0 l/m 3.4 km/h (1 Bft) SO -12.5 C -6.6 C
13.02.2003 22:00 -5.5 C 58 % 1024.8 hPa 0.0 l/m 0.5 km/h (0 Bft) O-SO -12.4 C -5.6 C
13.02.2003 23:00 -5.8 C 62 % 1024.8 hPa 0.0 l/m 0.4 km/h (0 Bft) N -11.8 C -5.9 C
14.02.2003 00:00 -6.0 C 65 % 1024.8 hPa 0.0 l/m 0.8 km/h (0 Bft) O-SO -11.5 C -6.3 C
14.02.2003 01:00 -5.8 C 63 % 1024.8 hPa 0.0 l/m 0.3 km/h (0 Bft) SO -11.7 C -5.8 C
14.02.2003 02:00 -5.8 C 63 % 1024.8 hPa 0.0 l/m 1.3 km/h (1 Bft) SO -11.6 C -6.2 C
14.02.2003 03:00 -5.9 C 64 % 1024.8 hPa 0.0 l/m 0.2 km/h (0 Bft) N -11.5 C -5.9 C
14.02.2003 04:00 -5.9 C 66 % 1024.8 hPa 0.0 l/m 1.3 km/h (1 Bft) SO -11.2 C -6.2 C
14.02.2003 05:00 -6.0 C 66 % 1024.8 hPa 0.0 l/m 0.2 km/h (0 Bft) SO -11.4 C -6.0 C
14.02.2003 06:00 -5.8 C 64 % 1024.8 hPa 0.0 l/m 1.1 km/h (1 Bft) O-SO -11.5 C -6.2 C
14.02.2003 07:00 -6.0 C 64 % 1024.8 hPa 0.0 l/m 1.0 km/h (0 Bft) O-SO -11.7 C -6.3 C
14.02.2003 08:00 -6.3 C 64 % 1025.2 hPa 0.0 l/m 2.3 km/h (1 Bft) O-SO -12.1 C -7.2 C
14.02.2003 09:00 -6.3 C 61 % 1025.8 hPa 0.0 l/m 2.5 km/h (1 Bft) O -12.5 C -7.2 C
14.02.2003 10:00 -5.7 C 59 % 1025.8 hPa 0.0 l/m 3.6 km/h (1 Bft) O-SO -12.4 C -7.2 C
14.02.2003 11:00 -4.8 C 57 % 1025.8 hPa 0.0 l/m 2.2 km/h (1 Bft) O-SO -12.0 C -5.5 C
14.02.2003 12:00 -4.1 C 56 % 1025.8 hPa 0.0 l/m 0.6 km/h (0 Bft) O-SO -11.6 C -4.2 C
14.02.2003 13:00 -3.5 C 55 % 1025.8 hPa 0.0 l/m 0.4 km/h (0 Bft) O-SO -11.2 C -3.6 C
14.02.2003 14:00 -3.3 C 56 % 1025.8 hPa 0.0 l/m 2.4 km/h (1 Bft) SO -10.8 C -4.2 C
14.02.2003 15:00 -3.5 C 56 % 1025.8 hPa 0.0 l/m 1.5 km/h (1 Bft) O-SO -10.9 C -3.6 C
14.02.2003 16:00 -3.9 C 57 % 1026.3 hPa 0.0 l/m 2.4 km/h (1 Bft) N-NO -11.1 C -4.7 C
14.02.2003 17:00 -4.3 C 58 % 1026.8 hPa 0.0 l/m 1.9 km/h (1 Bft) O-SO -11.3 C -5.0 C
14.02.2003 18:00 -4.6 C 58 % 1027.2 hPa 0.0 l/m 3.3 km/h (1 Bft) N-NO -11.5 C -5.7 C
14.02.2003 19:00 -4.9 C 61 % 1027.9 hPa 0.0 l/m 2.5 km/h (1 Bft) O-SO -11.2 C -5.7 C
14.02.2003 20:00 -5.0 C 60 % 1027.9 hPa 0.0 l/m 4.4 km/h (1 Bft) O-SO -11.6 C -6.4 C
14.02.2003 21:00 -5.3 C 59 % 1027.9 hPa 0.0 l/m 7.5 km/h (2 Bft) O-SO -12.0 C -8.2 C
14.02.2003 22:00 -5.3 C 60 % 1027.9 hPa 0.0 l/m 0.1 km/h (0 Bft) N -11.8 C -5.3 C
14.02.2003 23:00 -5.5 C 64 % 1027.9 hPa 0.0 l/m 2.0 km/h (1 Bft) O-NO -11.2 C -6.2 C
15.02.2003 00:00 -5.7 C 62 % 1027.9 hPa 0.0 l/m 0.1 km/h (0 Bft) N -11.7 C -5.7 C
15.02.2003 01:00 -6.0 C 62 % 1027.9 hPa 0.0 l/m 0.7 km/h (0 Bft) N-NO -12.1 C -6.2 C
15.02.2003 02:00 -6.3 C 62 % 1027.9 hPa 0.0 l/m 3.0 km/h (1 Bft) O-SO -12.3 C -7.3 C
15.02.2003 03:00 -6.5 C 62 % 1027.9 hPa 0.0 l/m 3.2 km/h (1 Bft) NO -12.6 C -7.7 C
15.02.2003 04:00 -6.7 C 61 % 1027.9 hPa 0.0 l/m 4.6 km/h (1 Bft) O-NO -12.9 C -8.4 C
15.02.2003 05:00 -6.4 C 62 % 1028.3 hPa 0.0 l/m 2.1 km/h (1 Bft) O-NO -12.5 C -7.0 C
15.02.2003 06:00 -6.6 C 66 % 1028.9 hPa 0.0 l/m 0.9 km/h (0 Bft) NO -11.8 C -6.8 C
15.02.2003 07:00 -6.7 C 68 % 1029.1 hPa 0.0 l/m 1.2 km/h (1 Bft) O-NO -11.6 C -6.9 C
15.02.2003 08:00 -6.8 C 64 % 1029.4 hPa 0.0 l/m 1.0 km/h (0 Bft) O -12.5 C -6.9 C
15.02.2003 09:00 -6.3 C 59 % 1029.9 hPa 0.0 l/m 4.8 km/h (1 Bft) O -13.0 C -8.3 C
15.02.2003 10:00 -4.9 C 57 % 1029.9 hPa 0.0 l/m 9.8 km/h (2 Bft) O-SO -12.1 C -8.7 C
15.02.2003 11:00 -3.5 C 55 % 1029.9 hPa 0.0 l/m 11.5 km/h (2 Bft) SO -11.3 C -7.9 C
15.02.2003 12:00 -2.3 C 54 % 1029.9 hPa 0.0 l/m 16.2 km/h (3 Bft) SO -10.5 C -7.5 C
15.02.2003 13:00 -1.6 C 55 % 1029.0 hPa 0.0 l/m 16.8 km/h (3 Bft) SO -9.3 C -6.6 C
15.02.2003 14:00 -1.0 C 54 % 1028.9 hPa 0.0 l/m 15.3 km/h (3 Bft) SO -9.1 C -5.7 C
15.02.2003 15:00 -0.8 C 54 % 1028.9 hPa 0.0 l/m 13.7 km/h (3 Bft) SO -8.9 C -5.1 C
15.02.2003 16:00 -1.4 C 55 % 1028.9 hPa 0.0 l/m 14.3 km/h (3 Bft) SO -9.2 C -5.9 C
15.02.2003 17:00 -2.8 C 58 % 1029.7 hPa 0.0 l/m 9.8 km/h (2 Bft) O-SO -9.9 C -6.5 C
15.02.2003 18:00 -3.8 C 63 % 1029.9 hPa 0.0 l/m 2.7 km/h (1 Bft) O-SO -9.8 C -5.0 C
15.02.2003 19:00 -4.5 C 67 % 1029.9 hPa 0.0 l/m 0.6 km/h (0 Bft) O-SO -9.8 C -4.7 C
15.02.2003 20:00 -5.9 C 73 % 1029.9 hPa 0.0 l/m 0.9 km/h (0 Bft) O-SO -10.0 C -6.1 C
15.02.2003 21:00 -6.1 C 73 % 1029.9 hPa 0.0 l/m 0.9 km/h (0 Bft) O-SO -10.2 C -6.1 C
15.02.2003 22:00 -6.1 C 66 % 1030.8 hPa 0.0 l/m 2.6 km/h (1 Bft) O-SO -11.5 C -6.9 C
15.02.2003 23:00 -6.3 C 64 % 1031.0 hPa 0.0 l/m 2.6 km/h (1 Bft) O-SO -12.1 C -7.2 C
16.02.2003 00:00 -6.1 C 66 % 1030.3 hPa 0.0 l/m 0.5 km/h (0 Bft) O-SO -11.4 C -6.1 C
16.02.2003 01:00 -5.3 C 67 % 1029.9 hPa 0.0 l/m 3.7 km/h (1 Bft) O-SO -10.4 C -6.7 C
16.02.2003 02:00 -5.1 C 67 % 1029.9 hPa 0.0 l/m 5.1 km/h (1 Bft) O-SO -10.4 C -7.0 C
16.02.2003 03:00 -5.6 C 68 % 1029.0 hPa 0.0 l/m 12.2 km/h (2 Bft) SO -10.5 C -10.4 C
16.02.2003 04:00 -6.7 C 74 % 1028.9 hPa 0.0 l/m 6.8 km/h (2 Bft) O-SO -10.6 C -9.4 C
16.02.2003 05:00 -6.7 C 76 % 1028.9 hPa 0.0 l/m 7.9 km/h (2 Bft) O-SO -10.2 C -10.1 C
16.02.2003 06:00 -7.2 C 78 % 1028.8 hPa 0.0 l/m 3.9 km/h (1 Bft) O-SO -10.3 C -8.9 C
16.02.2003 07:00 -5.7 C 73 % 1028.5 hPa 0.0 l/m 5.1 km/h (1 Bft) O-SO -9.8 C -7.4 C
16.02.2003 08:00 -4.6 C 67 % 1028.9 hPa 0.0 l/m 3.3 km/h (1 Bft) O-SO -9.7 C -5.6 C
16.02.2003 09:00 -4.1 C 66 % 1028.2 hPa 0.0 l/m 8.2 km/h (2 Bft) O -9.5 C -6.9 C
16.02.2003 10:00 -3.1 C 58 % 1028.4 hPa 0.0 l/m 6.1 km/h (2 Bft) NO -10.1 C -5.1 C
16.02.2003 11:00 -2.4 C 54 % 1028.0 hPa 0.0 l/m 9.8 km/h (2 Bft) O -10.4 C -5.5 C
16.02.2003 12:00 -1.7 C 51 % 1027.9 hPa 0.0 l/m 12.9 km/h (3 Bft) O-SO -10.5 C -5.3 C
16.02.2003 13:00 -1.4 C 51 % 1027.9 hPa 0.0 l/m 7.9 km/h (2 Bft) O-NO -10.3 C -3.9 C
16.02.2003 14:00 -1.3 C 49 % 1027.9 hPa 0.0 l/m 16.1 km/h (3 Bft) O-SO -10.7 C -5.9 C
16.02.2003 15:00 -1.2 C 46 % 1027.9 hPa 0.0 l/m 12.7 km/h (3 Bft) O-SO -11.4 C -4.9 C
16.02.2003 16:00 -1.6 C 45 % 1027.9 hPa 0.0 l/m 13.0 km/h (3 Bft) O-SO -11.9 C -5.3 C
16.02.2003 17:00 -1.9 C 48 % 1028.0 hPa 0.0 l/m 10.6 km/h (2 Bft) O-NO -11.5 C -4.8 C
16.02.2003 18:00 -2.3 C 51 % 1028.9 hPa 0.0 l/m 5.9 km/h (2 Bft) O-NO -11.0 C -4.3 C
16.02.2003 19:00 -2.6 C 52 % 1028.9 hPa 0.0 l/m 8.0 km/h (2 Bft) O -11.1 C -5.0 C
16.02.2003 20:00 -3.0 C 56 % 1028.9 hPa 0.0 l/m 3.2 km/h (1 Bft) O -10.6 C -4.1 C
16.02.2003 21:00 -3.1 C 55 % 1029.0 hPa 0.0 l/m 6.1 km/h (2 Bft) O-SO -10.9 C -5.1 C
16.02.2003 22:00 -3.2 C 56 % 1028.9 hPa 0.0 l/m 7.9 km/h (2 Bft) O-SO -10.6 C -5.7 C
16.02.2003 23:00 -3.2 C 59 % 1028.9 hPa 0.0 l/m 8.4 km/h (2 Bft) O-SO -10.2 C -5.7 C
Min-Datum _ 16.02.03 16.02.03 10.02.03 - 10.02.03 - 15.02.03 16.02.03
_ Min-Zeit 06:52 15:19 00:01 - 00:40 - 09:27 07:04
Minimum _ -7.7 C 45 % 1021.6 hPa - 0.0 km/h (0 Bft) - -13.5 C -13.3 C
Max-Datum _ 10.02.03 10.02.03 15.02.03 10.02.03 16.02.03 - 10.02.03 10.02.03
_ Max-Zeit 13:40 03:34 22:09 00:01 12:52 - 12:28 13:46
Maximum _ 3.2 C 82 % 1031.0 hPa 0.0 l/m 36.1 km/h
O-SO (5 Bft)
- -2.4 C 2.8 C
Durchschnitt _ -3.4 C 65 % 1026.7 hPa #0.0 l/m 3.8 km/h (1 Bft) O-SO -9.2 C -4.6 C

Durchschnitt Minimum Temp.-3.7 C
Durchschnitt Maximum Temp.-3.1 C
© Kaiko 2003